Time;durP1;ratioP1;P1;durP2;ratioP2;P2;SDS_P1;SDS_P2;PMS_P1;PMS_P2;Temp;Humidity;BMP_temperature;BMP_pressure;BME280_temperature;BME280_humidity;BME280_pressure;Samples;Min_cycle;Max_cycle;Signal;HPM_P1;HPM_P2
2023/09/23 00:01:47;;;;;;;1.27;0.70;;;;;;;10.86;100.00;98393.47;5047231;28;20454;-77
2023/09/23 00:04:12;;;;;;;0.63;0.35;;;;;;;10.87;100.00;98393.25;5039101;28;20028;-77
2023/09/23 00:06:38;;;;;;;1.70;0.40;;;;;;;10.93;100.00;98399.69;5045793;28;20029;-77
2023/09/23 00:09:04;;;;;;;0.77;0.40;;;;;;;10.82;100.00;98401.19;5047738;28;20069;-78
2023/09/23 00:11:29;;;;;;;0.80;0.45;;;;;;;10.80;100.00;98400.56;5039495;28;20409;-76
2023/09/23 00:13:55;;;;;;;0.63;0.30;;;;;;;10.80;100.00;98413.28;5047555;28;20020;-77
2023/09/23 00:16:21;;;;;;;0.93;0.30;;;;;;;10.81;100.00;98409.50;5046725;23;20129;-75
2023/09/23 00:18:46;;;;;;;0.50;0.38;;;;;;;10.78;100.00;98409.94;5008296;28;20039;-76
2023/09/23 00:21:12;;;;;;;4.97;0.70;;;;;;;10.69;100.00;98415.59;5008865;28;20551;-75
2023/09/23 00:23:38;;;;;;;0.80;0.40;;;;;;;10.72;100.00;98422.44;5012280;28;20025;-75
2023/09/23 00:26:06;;;;;;;0.68;0.47;;;;;;;10.62;100.00;98413.97;5007631;28;20117;-75
2023/09/23 00:28:32;;;;;;;2.05;0.40;;;;;;;10.64;100.00;98430.81;5004373;28;20026;-76
2023/09/23 00:31:11;;;;;;;3.10;0.77;;;;;;;10.63;100.00;98443.47;5011691;28;20025;-75
2023/09/23 00:33:37;;;;;;;1.80;0.45;;;;;;;10.57;100.00;98443.50;5012702;28;20030;-76
2023/09/23 00:36:04;;;;;;;1.67;0.57;;;;;;;10.40;100.00;98430.47;5012950;28;20366;-75
2023/09/23 00:38:30;;;;;;;1.92;0.50;;;;;;;10.51;100.00;98450.59;5012894;28;20029;-76
2023/09/23 00:40:57;;;;;;;1.15;0.50;;;;;;;10.50;100.00;98455.16;5010338;28;20109;-76
2023/09/23 00:43:23;;;;;;;0.55;0.47;;;;;;;10.47;100.00;98441.25;5010733;28;20026;-76
2023/09/23 00:45:51;;;;;;;0.77;0.40;;;;;;;10.45;100.00;98435.22;5011915;28;20030;-76
2023/09/23 00:48:20;;;;;;;0.43;0.30;;;;;;;10.43;100.00;98434.59;5009264;28;20030;-76
2023/09/23 00:50:47;;;;;;;1.90;0.52;;;;;;;10.41;100.00;98436.69;5011255;28;20022;-76
2023/09/23 00:53:14;;;;;;;0.68;0.40;;;;;;;10.47;100.00;98443.94;5012849;28;20112;-76
2023/09/23 00:55:42;;;;;;;1.40;0.50;;;;;;;10.40;100.00;98426.91;5011113;28;20037;-75
2023/09/23 00:58:14;;;;;;;0.30;0.30;;;;;;;10.37;100.00;98411.94;5015867;28;20099;-75
2023/09/23 01:00:48;;;;;;;1.17;0.40;;;;;;;10.45;100.00;98421.69;5008320;28;20369;-75
2023/09/23 01:03:15;;;;;;;1.13;0.40;;;;;;;10.49;100.00;98414.81;5019350;28;20045;-76
2023/09/23 01:05:41;;;;;;;0.98;0.50;;;;;;;10.48;100.00;98407.75;5030581;28;20025;-76
2023/09/23 01:08:20;;;;;;;0.77;0.28;;;;;;;10.40;100.00;98394.44;5014712;28;20029;-75
2023/09/23 01:10:48;;;;;;;0.30;0.30;;;;;;;10.50;100.00;98390.25;5017891;28;20025;-76
2023/09/23 01:13:13;;;;;;;1.00;0.32;;;;;;;10.60;100.00;98387.09;5019784;28;20029;-75
2023/09/23 01:15:40;;;;;;;1.60;0.30;;;;;;;10.59;100.00;98385.44;5018686;28;20032;-75
2023/09/23 01:18:18;;;;;;;0.88;0.22;;;;;;;10.64;100.00;98392.94;5034343;28;20029;-76
2023/09/23 01:20:45;;;;;;;2.83;0.52;;;;;;;10.65;100.00;98384.59;5027301;28;20033;-76
2023/09/23 01:23:12;;;;;;;3.60;0.85;;;;;;;10.62;100.00;98393.13;5034322;28;20093;-76
2023/09/23 01:25:38;;;;;;;1.55;0.20;;;;;;;10.63;100.00;98408.31;5030902;28;20056;-75
2023/09/23 01:28:05;;;;;;;0.65;0.30;;;;;;;10.57;100.00;98406.47;5033473;28;20081;-76
2023/09/23 01:30:31;;;;;;;2.70;0.40;;;;;;;10.52;100.00;98407.09;5035602;28;20021;-76
2023/09/23 01:32:56;;;;;;;0.40;0.30;;;;;;;10.53;100.00;98418.75;5033469;28;20089;-76
2023/09/23 01:35:22;;;;;;;2.05;0.30;;;;;;;10.53;100.00;98413.34;5029716;28;20129;-76
2023/09/23 01:37:49;;;;;;;2.30;0.30;;;;;;;10.41;100.00;98434.81;5029857;28;20030;-76
2023/09/23 01:40:17;;;;;;;3.03;0.38;;;;;;;10.40;100.00;98435.88;5024899;28;20056;-76
2023/09/23 01:42:48;;;;;;;3.25;0.30;;;;;;;10.33;100.00;98429.63;5030090;28;20090;-75
2023/09/23 01:45:14;;;;;;;0.65;0.30;;;;;;;10.38;100.00;98427.13;5031542;28;20030;-76
2023/09/23 01:47:43;;;;;;;1.92;0.40;;;;;;;10.37;100.00;98438.13;5037551;28;20092;-75
2023/09/23 01:50:10;;;;;;;2.15;0.35;;;;;;;10.28;100.00;98435.66;5029504;28;20025;-76
2023/09/23 01:52:36;;;;;;;0.55;0.30;;;;;;;10.22;100.00;98443.75;5024602;28;20026;-75
2023/09/23 01:55:05;;;;;;;0.70;0.60;;;;;;;10.17;100.00;98457.06;5015525;28;20029;-75
2023/09/23 01:57:33;;;;;;;1.77;0.60;;;;;;;10.15;100.00;98461.84;5014316;28;20033;-75
2023/09/23 01:59:59;;;;;;;1.05;0.40;;;;;;;10.09;100.00;98452.72;5011078;28;20022;-76
2023/09/23 02:02:24;;;;;;;1.00;0.40;;;;;;;10.18;100.00;98470.38;5016066;28;20108;-75
2023/09/23 02:04:49;;;;;;;1.15;0.45;;;;;;;10.19;100.00;98461.25;5005745;28;20104;-75
2023/09/23 02:07:14;;;;;;;1.65;0.45;;;;;;;10.09;100.00;98447.31;5014902;28;20029;-75
2023/09/23 02:09:40;;;;;;;1.35;0.50;;;;;;;10.05;100.00;98446.88;5029295;28;20123;-75
2023/09/23 02:12:06;;;;;;;1.30;0.32;;;;;;;9.98;100.00;98456.88;5015359;28;20045;-75
2023/09/23 02:14:31;;;;;;;2.38;0.50;;;;;;;9.82;100.00;98451.88;5002299;28;20105;-75
2023/09/23 02:16:57;;;;;;;3.05;0.47;;;;;;;9.79;100.00;98463.09;5029866;28;20026;-75
2023/09/23 02:19:24;;;;;;;0.43;0.30;;;;;;;9.79;100.00;98480.13;5010788;28;20394;-76
2023/09/23 02:21:51;;;;;;;0.55;0.40;;;;;;;9.73;100.00;98485.53;5007616;28;20120;-75
2023/09/23 02:24:19;;;;;;;3.85;0.40;;;;;;;9.66;100.00;98485.50;5004729;28;20026;-76
2023/09/23 02:26:45;;;;;;;0.90;0.47;;;;;;;9.62;100.00;98487.81;5008566;28;20351;-76
2023/09/23 02:29:14;;;;;;;1.67;0.50;;;;;;;9.67;100.00;98506.09;5015259;28;20034;-76
2023/09/23 02:31:44;;;;;;;0.57;0.50;;;;;;;9.63;100.00;98496.72;5015245;28;20576;-75
2023/09/23 02:34:10;;;;;;;1.35;0.40;;;;;;;9.67;100.00;98508.81;5014699;28;20372;-75
2023/09/23 02:36:37;;;;;;;2.33;0.60;;;;;;;9.69;100.00;98508.59;5012896;28;20041;-75
2023/09/23 02:39:15;;;;;;;2.70;0.85;;;;;;;9.61;100.00;98502.31;5013170;28;20033;-75
2023/09/23 02:41:40;;;;;;;1.13;0.63;;;;;;;9.62;100.00;98500.47;5009946;28;20038;-76
2023/09/23 02:44:05;;;;;;;1.55;0.75;;;;;;;9.69;100.00;98511.28;5012911;28;20021;-75
2023/09/23 02:46:31;;;;;;;1.23;0.68;;;;;;;9.60;100.00;98510.66;5010574;28;20029;-76
2023/09/23 02:48:57;;;;;;;2.70;0.60;;;;;;;9.53;100.00;98512.50;5011244;28;20036;-76
2023/09/23 02:51:23;;;;;;;1.10;0.50;;;;;;;9.55;100.00;98526.63;5014681;28;20037;-76
2023/09/23 02:53:48;;;;;;;2.33;0.52;;;;;;;9.49;100.00;98519.34;5011633;28;20038;-76
2023/09/23 02:56:15;;;;;;;2.17;0.77;;;;;;;9.47;100.00;98524.94;5012434;28;20052;-76
2023/09/23 02:58:43;;;;;;;4.03;0.90;;;;;;;9.40;100.00;98519.50;5013913;28;20125;-76
2023/09/23 03:01:14;;;;;;;1.48;0.80;;;;;;;9.31;100.00;98541.50;5012789;28;20018;-76
2023/09/23 03:03:40;;;;;;;3.22;1.13;;;;;;;9.25;100.00;98537.75;5009304;28;20469;-78
2023/09/23 03:06:10;;;;;;;2.88;1.00;;;;;;;9.28;100.00;98537.34;5006908;28;20101;-75
2023/09/23 03:08:37;;;;;;;1.15;0.70;;;;;;;9.34;100.00;98538.41;5012533;28;20108;-76
2023/09/23 03:11:06;;;;;;;5.00;0.50;;;;;;;9.43;100.00;98545.28;5013723;28;20124;-75
2023/09/23 03:13:32;;;;;;;1.55;0.70;;;;;;;9.32;100.00;98540.47;5001188;28;20056;-76
2023/09/23 03:16:08;;;;;;;1.85;0.80;;;;;;;9.23;100.00;98556.00;4996248;28;20416;-76
2023/09/23 03:18:36;;;;;;;4.80;0.88;;;;;;;9.12;100.00;98570.91;5012036;28;20030;-76
2023/09/23 03:21:10;;;;;;;2.50;0.70;;;;;;;9.11;100.00;98580.03;5011967;28;20036;-75
2023/09/23 03:23:40;;;;;;;1.48;0.70;;;;;;;9.15;100.00;98575.09;5008034;28;20037;-76
2023/09/23 03:26:06;;;;;;;;;;;;;;;9.14;100.00;98574.25;5010511;28;20033;-76
2023/09/23 03:28:32;;;;;;;0.50;0.47;;;;;;;9.07;100.00;98569.84;5011680;28;19940;-76
2023/09/23 03:31:00;;;;;;;1.45;0.75;;;;;;;9.00;100.00;98573.31;5013213;28;20091;-76
2023/09/23 03:33:25;;;;;;;1.55;0.65;;;;;;;8.93;100.00;98575.19;5007847;28;20156;-76
2023/09/23 03:35:50;;;;;;;2.25;0.80;;;;;;;9.02;100.00;98596.59;5011781;28;20624;-75
2023/09/23 03:38:16;;;;;;;0.65;0.60;;;;;;;8.90;100.00;98590.91;5012064;28;20068;-76
2023/09/23 03:40:52;;;;;;;1.33;0.70;;;;;;;8.89;100.00;98597.34;5009238;28;20026;-76
2023/09/23 03:43:17;;;;;;;1.95;0.40;;;;;;;8.92;100.00;98603.16;5000878;28;20421;-76
2023/09/23 03:45:42;;;;;;;1.00;0.63;;;;;;;8.84;100.00;98603.31;5011514;28;20028;-76
2023/09/23 03:48:10;;;;;;;1.15;0.60;;;;;;;8.82;100.00;98601.84;5010520;28;20026;-76
2023/09/23 03:50:35;;;;;;;3.67;0.75;;;;;;;8.87;100.00;98611.00;5025464;28;20382;-75
2023/09/23 03:53:01;;;;;;;1.40;0.77;;;;;;;8.91;100.00;98616.88;5011091;28;20038;-76
2023/09/23 03:55:26;;;;;;;1.05;0.80;;;;;;;8.83;100.00;98611.59;5012531;28;20037;-76
2023/09/23 03:57:53;;;;;;;6.95;0.95;;;;;;;8.76;100.00;98614.28;5006910;28;20022;-76
2023/09/23 04:00:20;;;;;;;1.15;0.80;;;;;;;8.76;100.00;98614.28;5009548;28;20462;-75
2023/09/23 04:02:49;;;;;;;5.45;1.08;;;;;;;8.70;100.00;98615.06;5013081;28;20400;-76
2023/09/23 04:05:15;;;;;;;1.80;1.00;;;;;;;8.56;100.00;98614.94;5007714;28;20152;-75
2023/09/23 04:07:49;;;;;;;1.88;1.10;;;;;;;8.52;100.00;98605.59;5012497;28;20033;-76
2023/09/23 04:10:17;;;;;;;4.20;1.23;;;;;;;8.44;100.00;98602.19;5012887;28;20037;-75
2023/09/23 04:12:43;;;;;;;3.50;1.00;;;;;;;8.57;100.00;98613.09;5005633;28;20026;-76
2023/09/23 04:15:09;;;;;;;1.38;1.02;;;;;;;8.48;100.00;98617.78;5007338;28;20030;-75
2023/09/23 04:17:35;;;;;;;1.83;1.02;;;;;;;8.49;100.00;98624.03;5010222;28;20075;-76
2023/09/23 04:20:03;;;;;;;1.42;1.10;;;;;;;8.43;100.00;98620.22;5011072;28;20117;-76
2023/09/23 04:22:29;;;;;;;1.65;1.15;;;;;;;8.56;100.00;98625.72;5010570;28;20026;-76
2023/09/23 04:24:54;;;;;;;1.42;1.00;;;;;;;8.47;100.00;98626.91;5008680;28;20084;-76
2023/09/23 04:27:20;;;;;;;1.83;1.00;;;;;;;8.31;100.00;98619.88;5010737;28;20033;-76
2023/09/23 04:29:47;;;;;;;4.28;1.10;;;;;;;8.37;100.00;98630.91;5011503;28;20021;-76
2023/09/23 04:32:12;;;;;;;4.10;1.45;;;;;;;8.16;100.00;98612.91;5011863;28;20036;-75
2023/09/23 04:34:37;;;;;;;2.30;1.13;;;;;;;8.26;100.00;98629.59;5008931;28;20031;-76
2023/09/23 04:37:04;;;;;;;1.98;1.38;;;;;;;8.27;100.00;98625.84;5011146;28;20022;-75
2023/09/23 04:39:30;;;;;;;4.38;1.20;;;;;;;8.31;100.00;98632.53;5012499;28;20125;-75
2023/09/23 04:41:56;;;;;;;2.00;1.38;;;;;;;8.36;100.00;98643.56;5007382;28;20021;-76
2023/09/23 04:44:21;;;;;;;3.33;2.00;;;;;;;8.24;100.00;98621.69;5001002;28;20034;-76
2023/09/23 04:46:47;;;;;;;2.55;1.30;;;;;;;8.31;100.00;98643.31;5003753;28;20958;-76
2023/09/23 04:49:12;;;;;;;2.20;1.17;;;;;;;8.40;100.00;98647.56;5012525;28;20018;-76
2023/09/23 04:51:38;;;;;;;2.35;1.00;;;;;;;8.33;100.00;98639.41;5009995;28;20028;-76
2023/09/23 04:54:03;;;;;;;2.60;1.25;;;;;;;8.38;100.00;98644.19;5009854;28;20451;-76
2023/09/23 04:56:29;;;;;;;3.67;1.48;;;;;;;8.37;100.00;98647.09;5011741;28;20030;-76
2023/09/23 04:58:58;;;;;;;1.63;1.08;;;;;;;8.19;100.00;98634.88;5013597;28;20026;-76
2023/09/23 05:01:24;;;;;;;4.20;1.20;;;;;;;8.20;100.00;98651.88;5008956;28;20026;-75
2023/09/23 05:03:51;;;;;;;1.48;0.95;;;;;;;8.10;100.00;98646.84;5016649;28;20033;-75
2023/09/23 05:06:17;;;;;;;4.38;0.93;;;;;;;8.09;100.00;98658.63;5031693;28;20645;-76
2023/09/23 05:08:43;;;;;;;1.25;0.90;;;;;;;8.18;100.00;98670.13;5028939;28;20103;-76
2023/09/23 05:11:11;;;;;;;1.60;1.15;;;;;;;8.17;100.00;98657.66;5031167;28;20044;-76
2023/09/23 05:13:37;;;;;;;4.13;1.10;;;;;;;8.09;100.00;98655.94;5030778;28;20068;-76
2023/09/23 05:16:03;;;;;;;2.10;1.17;;;;;;;8.10;100.00;98666.53;5031847;28;20014;-76
2023/09/23 05:18:29;;;;;;;1.75;1.00;;;;;;;8.14;100.00;98653.50;5032005;28;20139;-76
2023/09/23 05:20:54;;;;;;;4.63;1.40;;;;;;;8.22;100.00;98658.75;5031947;28;20101;-76
2023/09/23 05:23:23;;;;;;;4.75;1.25;;;;;;;8.41;100.00;98673.50;5029320;28;20034;-76
2023/09/23 05:25:48;;;;;;;1.92;1.25;;;;;;;8.46;100.00;98679.16;5030082;28;20429;-76
2023/09/23 05:28:14;;;;;;;1.50;1.08;;;;;;;8.53;100.00;98668.44;5030172;28;20014;-76
2023/09/23 05:30:39;;;;;;;4.15;1.10;;;;;;;8.61;100.00;98683.63;5038183;28;20053;-76
2023/09/23 05:33:04;;;;;;;1.92;1.25;;;;;;;8.71;100.00;98692.25;5020432;28;20021;-75
2023/09/23 05:35:29;;;;;;;6.30;2.30;;;;;;;8.75;100.00;98691.66;5013177;28;20033;-76
2023/09/23 05:37:55;;;;;;;2.67;1.35;;;;;;;8.85;100.00;98702.09;5012791;28;20473;-75
2023/09/23 05:42:47;;;;;;;1.65;1.10;;;;;;;9.30;100.00;98702.66;5010455;28;20064;-76
2023/09/23 05:45:13;;;;;;;3.58;1.25;;;;;;;9.50;100.00;98685.75;5013841;28;20025;-76
2023/09/23 05:47:45;;;;;;;3.35;0.80;;;;;;;9.71;100.00;98698.31;5001605;28;20041;-76
2023/09/23 05:50:10;;;;;;;1.10;1.00;;;;;;;10.04;100.00;98698.47;5013952;28;20030;-76
2023/09/23 05:52:36;;;;;;;2.22;0.75;;;;;;;11.14;100.00;98696.38;5013891;28;20499;-75
2023/09/23 05:55:03;;;;;;;1.88;0.70;;;;;;;12.87;100.00;98655.75;5016263;28;20052;-76
2023/09/23 05:57:29;;;;;;;1.30;0.80;;;;;;;13.68;100.00;98639.50;5014563;28;20393;-75
2023/09/23 05:59:54;;;;;;;4.45;0.60;;;;;;;15.10;100.00;98623.38;5015472;28;20029;-76
2023/09/23 06:02:21;;;;;;;1.45;0.63;;;;;;;15.86;100.00;98623.41;5010584;28;20045;-79
2023/09/23 06:04:47;;;;;;;2.53;0.50;;;;;;;16.32;100.00;98626.19;5010648;28;20026;-75
2023/09/23 06:07:12;;;;;;;1.55;0.60;;;;;;;16.53;100.00;98635.56;5014404;28;20057;-80
2023/09/23 06:09:37;;;;;;;1.55;0.55;;;;;;;16.23;100.00;98635.84;5011042;28;20109;-74
2023/09/23 06:12:03;;;;;;;4.38;0.65;;;;;;;16.32;100.00;98648.03;5009591;28;20109;-75
2023/09/23 06:14:28;;;;;;;3.00;0.60;;;;;;;16.48;100.00;98663.63;5013483;28;20025;-74
2023/09/23 06:16:53;;;;;;;1.02;0.57;;;;;;;16.60;100.00;98653.47;5030534;23;20053;-75
2023/09/23 06:19:19;;;;;;;3.38;0.75;;;;;;;17.00;100.00;98658.00;5029669;28;20039;-75
2023/09/23 06:21:44;;;;;;;2.85;0.60;;;;;;;17.96;100.00;98656.91;5018604;28;20026;-75
2023/09/23 06:24:10;;;;;;;3.28;0.95;;;;;;;18.00;100.00;98666.28;5028038;28;20442;-75
2023/09/23 06:26:37;;;;;;;5.35;0.60;;;;;;;18.12;100.00;98666.97;5028234;28;20018;-75
2023/09/23 06:29:04;;;;;;;1.25;0.60;;;;;;;18.41;100.00;98669.47;5004264;28;20061;-75
2023/09/23 06:31:30;;;;;;;3.90;0.57;;;;;;;18.54;100.00;98603.31;5012468;28;20396;-75
2023/09/23 06:33:55;;;;;;;1.80;0.40;;;;;;;19.80;100.00;98680.50;5012048;28;20030;-75
2023/09/23 06:36:21;;;;;;;0.98;0.45;;;;;;;20.66;100.00;98670.13;5012488;28;20365;-75
2023/09/23 06:38:46;;;;;;;2.03;0.75;;;;;;;23.08;85.99;98663.59;5011342;28;20025;-76
2023/09/23 06:41:11;;;;;;;2.58;0.43;;;;;;;23.51;71.78;98669.31;5005816;28;20025;-75
2023/09/23 06:43:37;;;;;;;3.17;0.65;;;;;;;24.91;66.83;98671.69;5005383;28;20073;-77
2023/09/23 06:46:02;;;;;;;2.25;0.50;;;;;;;26.44;60.98;98672.78;5011472;28;20042;-77
2023/09/23 06:48:28;;;;;;;1.20;0.55;;;;;;;26.88;59.67;98677.63;5004870;28;20040;-74
2023/09/23 06:51:01;;;;;;;0.50;0.40;;;;;;;27.68;54.00;98686.16;5023480;28;20452;-76
2023/09/23 06:53:28;;;;;;;1.55;0.55;;;;;;;28.28;51.97;98686.75;5005859;28;20112;-75
2023/09/23 06:55:53;;;;;;;1.05;0.43;;;;;;;28.45;50.58;98683.22;5009368;28;20542;-76
2023/09/23 06:58:19;;;;;;;2.35;0.55;;;;;;;28.25;49.40;98679.06;4997524;28;20109;-79
2023/09/23 07:00:44;;;;;;;2.58;0.63;;;;;;;27.27;49.93;98678.91;5023511;28;20048;-80
2023/09/23 07:03:10;;;;;;;2.63;0.60;;;;;;;25.63;54.25;98694.63;5013044;28;20070;-80
2023/09/23 07:05:35;;;;;;;0.65;0.47;;;;;;;26.21;53.37;98699.59;5013360;28;20049;-80
2023/09/23 07:08:02;;;;;;;1.20;0.40;;;;;;;26.09;54.01;98702.06;5002499;28;20125;-78
2023/09/23 07:10:27;;;;;;;0.63;0.50;;;;;;;25.40;55.86;98696.41;5006224;28;20024;-77
2023/09/23 07:12:53;;;;;;;1.92;0.50;;;;;;;24.88;56.58;98708.25;5011004;28;20029;-77
2023/09/23 07:15:18;;;;;;;2.15;0.95;;;;;;;25.29;57.11;98709.63;5012476;28;20061;-77
2023/09/23 07:17:43;;;;;;;6.40;1.35;;;;;;;25.29;57.57;98723.47;5008365;28;20113;-76
2023/09/23 07:20:09;;;;;;;2.08;0.88;;;;;;;25.83;55.22;98713.63;5002609;28;20037;-77
2023/09/23 07:22:35;;;;;;;5.90;2.92;;;;;;;27.57;51.25;98697.91;5006403;28;20053;-77
2023/09/23 07:25:00;;;;;;;4.13;1.35;;;;;;;27.47;51.31;98708.13;5010482;28;20444;-77
2023/09/23 07:27:26;;;;;;;2.75;0.70;;;;;;;28.57;50.22;98711.25;4991832;28;20545;-77
2023/09/23 07:29:51;;;;;;;1.20;0.60;;;;;;;29.62;47.41;98706.50;5010800;28;20030;-78
2023/09/23 07:32:17;;;;;;;2.33;0.35;;;;;;;30.11;44.48;98693.06;5014410;28;20463;-80
2023/09/23 07:34:42;;;;;;;1.88;0.50;;;;;;;30.41;45.09;98713.44;5012972;28;20076;-74
2023/09/23 07:37:08;;;;;;;1.95;0.50;;;;;;;29.76;46.48;98723.03;5017339;28;20025;-80
2023/09/23 07:39:34;;;;;;;2.22;0.47;;;;;;;31.73;42.14;98728.03;5002253;28;20038;-79
2023/09/23 07:41:59;;;;;;;1.52;0.43;;;;;;;31.14;42.38;98729.88;4996955;28;20034;-78
2023/09/23 07:44:25;;;;;;;1.70;0.70;;;;;;;28.28;46.02;98722.94;4994688;28;20064;-80
2023/09/23 07:46:50;;;;;;;5.72;2.38;;;;;;;31.58;42.99;98732.31;5005621;28;20165;-78
2023/09/23 07:49:15;;;;;;;1.92;0.70;;;;;;;28.99;44.36;98745.03;5004444;28;20168;-79
2023/09/23 07:51:40;;;;;;;4.88;2.10;;;;;;;30.59;42.52;98736.50;5010706;28;20044;-80
2023/09/23 07:54:06;;;;;;;2.58;1.13;;;;;;;29.92;44.05;98741.72;5015234;28;20024;-78
2023/09/23 07:56:31;;;;;;;4.25;1.23;;;;;;;30.63;42.37;98731.03;5015826;28;20106;-79
2023/09/23 07:58:57;;;;;;;3.45;0.52;;;;;;;30.84;42.37;98753.44;5007163;28;20050;-77
2023/09/23 08:01:22;;;;;;;3.00;0.57;;;;;;;30.45;41.69;98733.97;5003024;28;20053;-77
2023/09/23 08:03:47;;;;;;;1.10;0.30;;;;;;;28.74;43.95;98757.78;5000740;28;20026;-75
2023/09/23 08:06:12;;;;;;;0.63;0.30;;;;;;;28.91;45.70;98757.00;5001274;28;20105;-77
2023/09/23 08:08:38;;;;;;;2.13;0.45;;;;;;;27.65;46.30;98770.19;5011229;28;20026;-77
2023/09/23 08:11:03;;;;;;;3.45;0.50;;;;;;;29.83;45.18;98760.44;5011969;28;20034;-77
2023/09/23 08:13:28;;;;;;;1.17;0.30;;;;;;;29.47;43.10;98775.56;5003878;28;20018;-77
2023/09/23 08:15:58;;;;;;;1.45;0.45;;;;;;;29.52;43.46;98776.53;5015411;28;20029;-76
2023/09/23 08:18:23;;;;;;;1.52;0.80;;;;;;;30.40;40.69;98789.16;5025884;28;20560;-73
2023/09/23 08:20:56;;;;;;;1.48;0.50;;;;;;;30.70;40.49;98788.00;5011883;28;20072;-73
2023/09/23 08:23:22;;;;;;;2.45;0.60;;;;;;;31.55;40.11;98800.94;5006069;28;20037;-73
2023/09/23 08:25:47;;;;;;;0.63;0.30;;;;;;;33.70;38.57;98793.22;5011319;28;20030;-73
2023/09/23 08:28:13;;;;;;;0.60;0.30;;;;;;;34.77;35.40;98803.66;5009319;28;20373;-73
2023/09/23 08:30:40;;;;;;;1.83;0.60;;;;;;;32.40;37.31;98815.53;5008463;28;20357;-73
2023/09/23 08:33:05;;;;;;;1.80;0.70;;;;;;;30.24;38.59;98811.22;5013149;28;20033;-73
2023/09/23 08:35:31;;;;;;;0.60;0.32;;;;;;;31.66;38.11;98815.31;4994871;28;20053;-74
2023/09/23 08:37:56;;;;;;;2.58;0.50;;;;;;;33.32;36.76;98800.91;5004195;28;20108;-73
2023/09/23 08:40:22;;;;;;;1.83;0.40;;;;;;;34.08;35.71;98789.88;5006548;28;20045;-74
2023/09/23 08:42:52;;;;;;;1.10;0.40;;;;;;;35.35;34.85;98801.00;5006573;28;20030;-73
2023/09/23 08:45:21;;;;;;;1.60;0.60;;;;;;;33.53;36.25;98791.50;5003714;28;20019;-73
2023/09/23 08:47:47;;;;;;;0.68;0.22;;;;;;;33.16;36.04;98784.00;5010001;28;20393;-73
2023/09/23 08:50:15;;;;;;;1.25;0.35;;;;;;;33.14;36.39;98808.81;4999349;28;20034;-74
2023/09/23 08:52:41;;;;;;;1.45;0.47;;;;;;;31.62;37.80;98804.00;5007577;28;20026;-74
2023/09/23 08:55:10;;;;;;;1.95;0.50;;;;;;;31.72;37.30;98797.16;5013178;28;20089;-73
2023/09/23 08:57:35;;;;;;;1.17;0.40;;;;;;;31.29;37.57;98814.28;5008987;28;20018;-74
2023/09/23 09:00:01;;;;;;;2.28;0.55;;;;;;;32.73;37.01;98801.47;5005066;28;20033;-73
2023/09/23 09:02:26;;;;;;;1.73;0.50;;;;;;;33.08;36.16;98815.81;4993306;28;20022;-74
2023/09/23 09:04:54;;;;;;;1.70;0.50;;;;;;;32.35;37.25;98833.38;5000660;28;20029;-73
2023/09/23 09:07:22;;;;;;;1.33;0.40;;;;;;;33.70;35.31;98819.28;4995968;28;20034;-74
2023/09/23 09:09:48;;;;;;;0.70;0.30;;;;;;;33.65;34.79;98815.94;5004234;28;20105;-73
2023/09/23 09:12:15;;;;;;;3.13;0.40;;;;;;;33.22;34.29;98820.22;5011840;28;20064;-74
2023/09/23 09:14:41;;;;;;;2.70;0.35;;;;;;;34.48;35.16;98825.44;5005625;28;20057;-73
2023/09/23 09:17:09;;;;;;;2.20;0.40;;;;;;;35.05;34.51;98826.81;5011345;28;20485;-73
2023/09/23 09:19:38;;;;;;;3.10;0.52;;;;;;;34.63;35.40;98810.56;5005831;28;20120;-72
2023/09/23 09:22:04;;;;;;;3.30;0.70;;;;;;;36.03;34.60;98830.56;5017158;28;20045;-72
2023/09/23 09:24:29;;;;;;;1.52;0.50;;;;;;;34.22;34.30;98811.91;4996129;28;20439;-74
2023/09/23 09:26:54;;;;;;;2.08;0.65;;;;;;;34.20;34.16;98817.88;5002881;28;20431;-74
2023/09/23 09:29:20;;;;;;;3.00;0.70;;;;;;;35.79;33.53;98820.44;5013141;28;20076;-74
2023/09/23 09:31:49;;;;;;;1.40;0.43;;;;;;;34.50;35.02;98822.25;5010323;28;20783;-74
2023/09/23 09:34:23;;;;;;;1.90;0.40;;;;;;;35.59;33.33;98813.19;5011740;28;20540;-74
2023/09/23 09:36:54;;;;;;;1.95;0.50;;;;;;;34.12;33.26;98807.63;5005272;28;20026;-74
2023/09/23 09:39:23;;;;;;;1.77;0.50;;;;;;;29.07;38.39;98822.25;5015241;28;20028;-73
2023/09/23 09:41:53;;;;;;;3.55;0.82;;;;;;;26.77;42.58;98814.16;5022573;28;20022;-74
2023/09/23 09:44:23;;;;;;;1.83;0.55;;;;;;;26.43;42.53;98838.38;5013364;28;20018;-74
2023/09/23 09:46:50;;;;;;;1.55;0.60;;;;;;;28.92;41.64;98829.06;5017150;28;21826;-74
2023/09/23 09:49:16;;;;;;;1.73;0.50;;;;;;;30.62;39.36;98825.19;5018778;28;20018;-74
2023/09/23 09:51:42;;;;;;;2.20;0.50;;;;;;;31.81;37.13;98819.47;5011084;28;20026;-74
2023/09/23 09:54:11;;;;;;;1.52;0.60;;;;;;;31.47;37.47;98820.56;5032623;28;20081;-74
2023/09/23 09:56:38;;;;;;;2.22;0.55;;;;;;;28.38;41.19;98825.59;5021227;28;20443;-74
2023/09/23 09:59:04;;;;;;;1.63;0.50;;;;;;;27.43;43.39;98825.75;5011487;28;21790;-74
2023/09/23 10:01:30;;;;;;;2.80;0.70;;;;;;;28.60;39.43;98819.97;5014999;28;20030;-74
2023/09/23 10:03:56;;;;;;;2.50;0.40;;;;;;;26.09;43.52;98818.53;5016657;28;20021;-73
2023/09/23 10:06:22;;;;;;;2.58;0.60;;;;;;;27.29;42.39;98809.16;5013466;28;20057;-73
2023/09/23 10:08:49;;;;;;;1.85;0.70;;;;;;;29.47;40.65;98817.38;5014718;28;20037;-73
2023/09/23 10:11:15;;;;;;;1.77;0.40;;;;;;;30.84;37.67;98809.31;5009697;28;20034;-74
2023/09/23 10:13:42;;;;;;;2.45;0.52;;;;;;;30.09;37.27;98807.78;5013733;28;20080;-74
2023/09/23 10:16:19;;;;;;;2.25;0.47;;;;;;;25.73;42.67;98819.13;5013021;28;20484;-74
2023/09/23 10:18:53;;;;;;;3.83;0.52;;;;;;;25.86;44.55;98823.09;5013764;28;20048;-73
2023/09/23 10:21:23;;;;;;;1.65;0.40;;;;;;;24.88;47.60;98829.22;5014118;28;20026;-73
2023/09/23 10:23:51;;;;;;;1.38;0.40;;;;;;;23.57;47.98;98836.59;5010730;28;20018;-73
2023/09/23 10:26:18;;;;;;;1.95;0.43;;;;;;;22.88;50.16;98828.16;5002443;28;20037;-74
2023/09/23 10:28:58;;;;;;;2.28;0.50;;;;;;;23.56;48.83;98835.78;5006517;28;20100;-73
2023/09/23 10:31:32;;;;;;;4.10;0.45;;;;;;;24.71;47.16;98822.25;5005414;28;20515;-75
2023/09/23 10:33:57;;;;;;;0.95;0.22;;;;;;;29.20;41.67;98820.47;5013650;28;20030;-75
2023/09/23 10:36:23;;;;;;;1.38;0.45;;;;;;;28.54;40.27;98812.91;5004258;28;20100;-75
2023/09/23 10:38:49;;;;;;;3.05;0.50;;;;;;;31.10;38.71;98803.56;5005414;28;20028;-74
2023/09/23 10:41:14;;;;;;;2.63;0.70;;;;;;;28.88;39.80;98822.53;5006756;28;20113;-74
2023/09/23 10:43:40;;;;;;;1.48;0.30;;;;;;;27.85;40.70;98818.09;5000037;28;20594;-74
2023/09/23 10:46:06;;;;;;;1.27;0.50;;;;;;;29.79;39.03;98798.53;5002169;28;20026;-75
2023/09/23 10:48:32;;;;;;;3.78;0.40;;;;;;;28.45;39.12;98814.84;4998394;28;20093;-74
2023/09/23 10:50:58;;;;;;;1.88;0.50;;;;;;;24.86;43.83;98824.00;5009693;28;20030;-74
2023/09/23 10:53:24;;;;;;;3.22;0.50;;;;;;;25.72;44.17;98809.16;5005127;28;20089;-74
2023/09/23 10:55:51;;;;;;;1.40;0.43;;;;;;;27.91;41.42;98833.53;5010047;28;20044;-74
2023/09/23 10:58:17;;;;;;;3.58;0.50;;;;;;;30.18;38.52;98813.34;5011467;28;20021;-74
2023/09/23 11:00:42;;;;;;;2.75;0.60;;;;;;;33.20;35.77;98806.56;5011381;28;20057;-74
2023/09/23 11:03:16;;;;;;;1.75;0.50;;;;;;;31.03;35.89;98823.69;5011954;28;20079;-74
2023/09/23 11:05:43;;;;;;;3.58;0.70;;;;;;;28.95;38.47;98820.09;5006586;28;20109;-74
2023/09/23 11:08:14;;;;;;;4.22;0.90;;;;;;;27.69;41.36;98845.44;5006214;28;20025;-74
2023/09/23 11:10:41;;;;;;;2.85;0.57;;;;;;;28.04;40.89;98835.41;5011168;28;20474;-74
2023/09/23 11:13:08;;;;;;;3.58;0.55;;;;;;;30.38;37.89;98831.38;5009692;28;20030;-74
2023/09/23 11:15:35;;;;;;;5.50;0.70;;;;;;;31.93;35.26;98832.69;5007749;28;20422;-75
2023/09/23 11:18:01;;;;;;;3.67;0.50;;;;;;;34.87;32.53;98819.97;4997307;28;20101;-75
2023/09/23 11:20:31;;;;;;;2.13;0.50;;;;;;;34.23;31.91;98825.56;5013338;28;20129;-74
2023/09/23 11:23:03;;;;;;;3.10;0.60;;;;;;;28.46;38.20;98821.25;5007715;28;20033;-74
2023/09/23 11:25:36;;;;;;;0.85;0.40;;;;;;;27.68;39.99;98830.72;5009852;28;20163;-74
2023/09/23 11:28:02;;;;;;;1.75;0.50;;;;;;;27.75;41.33;98845.00;5006534;28;20510;-74
2023/09/23 11:30:28;;;;;;;3.72;0.45;;;;;;;28.80;39.28;98840.84;5011353;28;20049;-72
2023/09/23 11:32:53;;;;;;;3.13;0.50;;;;;;;29.78;37.18;98841.47;5010534;28;20025;-74